Time;durP1;ratioP1;P1;durP2;ratioP2;P2;SDS_P1;SDS_P2;PMS_P1;PMS_P2;Temp;Humidity;BMP_temperature;BMP_pressure;BME280_temperature;BME280_humidity;BME280_pressure;Samples;Min_cycle;Max_cycle;Signal;HPM_P1;HPM_P2
2022/04/21 00:08:43;;;;;;;27.2;35.2;;;;;;;5.4;72.8;98290;;;;
2022/04/21 00:18:46;;;;;;;27.2;35.2;;;;;;;5.4;72.5;98300;;;;
2022/04/21 00:28:43;;;;;;;25.7;30.1;;;;;;;5.4;72.6;98300;;;;
2022/04/21 00:39:43;;;;;;;25.7;30.1;;;;;;;5.3;73.5;98310;;;;
2022/04/21 00:49:43;;;;;;;25.7;30.1;;;;;;;5.3;73.4;98310;;;;
2022/04/21 01:00:43;;;;;;;26.4;31.9;;;;;;;5.4;72.7;98320;;;;
2022/04/21 01:10:43;;;;;;;26.4;31.9;;;;;;;5.3;72.9;98310;;;;
2022/04/21 01:21:44;;;;;;;26.4;31.9;;;;;;;5.3;72.9;98320;;;;
2022/04/21 01:31:43;;;;;;;26.5;30.6;;;;;;;5.2;73.2;98320;;;;
2022/04/21 01:41:43;;;;;;;26.5;30.6;;;;;;;5.2;73.4;98320;;;;
2022/04/21 01:52:43;;;;;;;26.5;30.6;;;;;;;5;74.4;98310;;;;
2022/04/21 02:03:43;;;;;;;25.8;31.9;;;;;;;4.9;74.6;98300;;;;
2022/04/21 02:13:43;;;;;;;25.8;31.9;;;;;;;4.9;74.2;98290;;;;
2022/04/21 02:23:43;;;;;;;25.8;31.9;;;;;;;4.8;74;98300;;;;
2022/04/21 02:34:43;;;;;;;24.9;35.2;;;;;;;4.8;73.7;98300;;;;
2022/04/21 02:45:43;;;;;;;24.9;35.2;;;;;;;4.8;73.6;98300;;;;
2022/04/21 03:06:43;;;;;;;23.7;29.8;;;;;;;4.7;73.9;98300;;;;
2022/04/21 03:16:43;;;;;;;23.7;29.8;;;;;;;4.7;73.9;98290;;;;
2022/04/21 03:27:46;;;;;;;21.2;27.6;;;;;;;4.7;73.9;98270;;;;
2022/04/21 03:38:43;;;;;;;21.2;27.6;;;;;;;4.8;73.6;98270;;;;
2022/04/21 03:49:43;;;;;;;21.2;27.6;;;;;;;4.9;73.3;98290;;;;
2022/04/21 04:00:43;;;;;;;22.1;28.9;;;;;;;4.9;73.2;98300;;;;
2022/04/21 04:11:43;;;;;;;22.1;28.9;;;;;;;5;73.4;98290;;;;
2022/04/21 04:21:43;;;;;;;22.1;28.9;;;;;;;5;72.9;98300;;;;
2022/04/21 04:31:43;;;;;;;22.3;29;;;;;;;5;72.7;98300;;;;
2022/04/21 04:42:47;;;;;;;22.3;29;;;;;;;5.2;72.9;98300;;;;
2022/04/21 04:52:44;;;;;;;22.3;29;;;;;;;5.4;72.5;98300;;;;
2022/04/21 05:02:44;;;;;;;23.3;28.5;;;;;;;5.6;72.1;98300;;;;
2022/04/21 05:13:44;;;;;;;23.3;28.5;;;;;;;6;71.1;98300;;;;
2022/04/21 05:24:43;;;;;;;23.3;28.5;;;;;;;6.2;69.5;98310;;;;
2022/04/21 05:35:43;;;;;;;23.4;26.9;;;;;;;6.3;69.6;98310;;;;
2022/04/21 05:46:43;;;;;;;23.4;26.9;;;;;;;6.7;68.4;98300;;;;
2022/04/21 05:56:43;;;;;;;23.2;29.6;;;;;;;6.7;67.9;98310;;;;
2022/04/21 06:06:43;;;;;;;23.2;29.6;;;;;;;7.2;67.7;98310;;;;
2022/04/21 06:17:45;;;;;;;23.2;29.6;;;;;;;7.3;67.4;98310;;;;
2022/04/21 06:27:43;;;;;;;25.5;30.8;;;;;;;7.8;67.3;98310;;;;
2022/04/21 06:37:43;;;;;;;25.5;30.8;;;;;;;8.1;66.4;98310;;;;
2022/04/21 06:48:43;;;;;;;25.5;30.8;;;;;;;8.5;64.8;98300;;;;
2022/04/21 06:58:43;;;;;;;27.5;31;;;;;;;8.6;64;98310;;;;
2022/04/21 07:09:43;;;;;;;27.5;31;;;;;;;9.1;64.1;98320;;;;
2022/04/21 07:19:44;;;;;;;27.5;31;;;;;;;9.2;63.5;98320;;;;
2022/04/21 07:29:43;;;;;;;23.8;26.5;;;;;;;9.8;62.5;98320;;;;
2022/04/21 07:40:43;;;;;;;23.8;26.5;;;;;;;10.6;61.8;98340;;;;
2022/04/21 07:51:43;;;;;;;23.8;26.5;;;;;;;10.4;60.6;98340;;;;
2022/04/21 08:02:43;;;;;;;25;29.5;;;;;;;11;60.7;98350;;;;
2022/04/21 08:12:43;;;;;;;25;29.5;;;;;;;11.3;58.2;98340;;;;
2022/04/21 08:23:43;;;;;;;25;29.5;;;;;;;11;55.8;98340;;;;
2022/04/21 08:33:43;;;;;;;18.9;23.3;;;;;;;11.2;56.1;98340;;;;
2022/04/21 08:44:43;;;;;;;18.9;23.3;;;;;;;11.5;55.4;98330;;;;
2022/04/21 08:55:44;;;;;;;15.9;20.5;;;;;;;11.7;52.7;98320;;;;
2022/04/21 09:05:44;;;;;;;15.9;20.5;;;;;;;11.7;51.5;98310;;;;
2022/04/21 09:16:43;;;;;;;15.9;20.5;;;;;;;11.8;52.1;98310;;;;
2022/04/21 09:26:43;;;;;;;19;24.7;;;;;;;12.3;52;98300;;;;
2022/04/21 09:36:43;;;;;;;19;24.7;;;;;;;12.2;52;98290;;;;
2022/04/21 09:47:43;;;;;;;19;24.7;;;;;;;13;53.2;98300;;;;
2022/04/21 09:58:43;;;;;;;18.4;21.8;;;;;;;12.2;52.1;98290;;;;
2022/04/21 10:08:43;;;;;;;18.4;21.8;;;;;;;12.7;50.9;98290;;;;
2022/04/21 10:18:43;;;;;;;18.4;21.8;;;;;;;12.9;51;98280;;;;
2022/04/21 10:29:43;;;;;;;15.1;19.8;;;;;;;13.3;49.4;98280;;;;
2022/04/21 10:40:43;;;;;;;15.1;19.8;;;;;;;13.5;49.1;98270;;;;
2022/04/21 10:50:44;;;;;;;15.1;19.8;;;;;;;14.1;47.2;98270;;;;
2022/04/21 11:01:43;;;;;;;11.8;13.7;;;;;;;14.8;47;98250;;;;
2022/04/21 11:12:43;;;;;;;11.8;13.7;;;;;;;14.4;46.5;98270;;;;
2022/04/21 11:22:43;;;;;;;11.8;13.7;;;;;;;14.4;46.1;98260;;;;
2022/04/21 11:32:43;;;;;;;8.5;11;;;;;;;14.3;45.4;98250;;;;
2022/04/21 11:42:43;;;;;;;8.5;11;;;;;;;13.9;46.4;98250;;;;
2022/04/21 11:53:43;;;;;;;8.5;11;;;;;;;14.4;47.1;98240;;;;
2022/04/21 12:13:43;;;;;;;7.2;10.3;;;;;;;14.8;43.9;98240;;;;
2022/04/21 12:24:43;;;;;;;7.2;10.3;;;;;;;14.3;45.3;98230;;;;
2022/04/21 12:34:43;;;;;;;6.8;12.6;;;;;;;14.2;45.7;98220;;;;
2022/04/21 12:44:44;;;;;;;6.8;12.6;;;;;;;14.2;44.6;98230;;;;
2022/04/21 12:54:43;;;;;;;6.8;12.6;;;;;;;14.3;45.3;98230;;;;
2022/04/21 13:04:43;;;;;;;7.3;10.1;;;;;;;14.1;46.3;98230;;;;
2022/04/21 13:15:43;;;;;;;7.3;10.1;;;;;;;13.9;45.4;98240;;;;
2022/04/21 13:26:43;;;;;;;7.9;10.9;;;;;;;13.9;45.6;98240;;;;
2022/04/21 13:36:43;;;;;;;7.9;10.9;;;;;;;13.8;46.3;98250;;;;
2022/04/21 13:46:43;;;;;;;7.9;10.9;;;;;;;13.6;45.9;98250;;;;
2022/04/21 13:56:43;;;;;;;8.4;11.4;;;;;;;13.6;46.8;98250;;;;
2022/04/21 14:07:44;;;;;;;8.4;11.4;;;;;;;13.6;46.6;98260;;;;
2022/04/21 14:17:44;;;;;;;8.4;11.4;;;;;;;13.4;47.9;98260;;;;
2022/04/21 14:27:43;;;;;;;11.1;14.7;;;;;;;13;50;98260;;;;
2022/04/21 14:48:43;;;;;;;11.1;14.7;;;;;;;12.8;50.5;98260;;;;
2022/04/21 14:59:43;;;;;;;10.7;13.5;;;;;;;12.5;51.3;98260;;;;
2022/04/21 15:09:43;;;;;;;10.7;13.5;;;;;;;12.2;52.4;98260;;;;
2022/04/21 15:19:46;;;;;;;10.7;13.5;;;;;;;12.1;53.7;98260;;;;
2022/04/21 15:30:43;;;;;;;12.4;15.9;;;;;;;11.8;54.6;98260;;;;
2022/04/21 15:40:43;;;;;;;12.4;15.9;;;;;;;11.4;57.5;98270;;;;
2022/04/21 15:51:45;;;;;;;12.4;15.9;;;;;;;11;58.3;98280;;;;
2022/04/21 16:01:44;;;;;;;13.3;17.7;;;;;;;10.8;59.6;98280;;;;
2022/04/21 16:12:43;;;;;;;13.3;17.7;;;;;;;10.8;59.8;98290;;;;
2022/04/21 16:22:46;;;;;;;13.3;17.7;;;;;;;10.4;61.9;98290;;;;
2022/04/21 16:33:43;;;;;;;21;27.7;;;;;;;10.2;64.1;98280;;;;
2022/04/21 16:44:43;;;;;;;21;27.7;;;;;;;10;65.6;98280;;;;
2022/04/21 16:54:43;;;;;;;17.6;20.6;;;;;;;10;67.9;98280;;;;
2022/04/21 17:04:43;;;;;;;17.6;20.6;;;;;;;9.9;68.6;98280;;;;
2022/04/21 17:15:44;;;;;;;17.6;20.6;;;;;;;9.9;68.7;98290;;;;
2022/04/21 17:26:43;;;;;;;18.5;22.9;;;;;;;9.7;69.1;98290;;;;
2022/04/21 17:36:44;;;;;;;18.5;22.9;;;;;;;9.8;68.5;98300;;;;
2022/04/21 17:47:44;;;;;;;18.5;22.9;;;;;;;9.5;70.3;98300;;;;
2022/04/21 17:57:43;;;;;;;22.9;28.5;;;;;;;9.3;70.7;98300;;;;
2022/04/21 18:08:44;;;;;;;22.9;28.5;;;;;;;9.2;70.5;98310;;;;
2022/04/21 18:19:45;;;;;;;22.9;28.5;;;;;;;9.1;71.1;98310;;;;
2022/04/21 18:29:43;;;;;;;29.2;38.5;;;;;;;9;71.2;98320;;;;
2022/04/21 18:39:43;;;;;;;29.2;38.5;;;;;;;9;70.9;98320;;;;
2022/04/21 18:49:44;;;;;;;29.2;38.5;;;;;;;9;71.2;98320;;;;
2022/04/21 18:59:44;;;;;;;33.5;41;;;;;;;8.9;72.2;98310;;;;
2022/04/21 19:10:43;;;;;;;33.5;41;;;;;;;8.9;71.9;98310;;;;
2022/04/21 19:21:44;;;;;;;33.5;41;;;;;;;8.8;72.6;98310;;;;
2022/04/21 19:31:44;;;;;;;30.1;35.8;;;;;;;8.8;72;98310;;;;
2022/04/21 19:42:44;;;;;;;30.1;35.8;;;;;;;8.8;72.2;98300;;;;
2022/04/21 19:52:43;;;;;;;30.1;35.8;;;;;;;8.7;72.8;98300;;;;
2022/04/21 20:03:44;;;;;;;34;42.6;;;;;;;8.6;73.7;98290;;;;
2022/04/21 20:14:45;;;;;;;34;42.6;;;;;;;8.5;73.9;98280;;;;
2022/04/21 20:35:44;;;;;;;35.1;40.3;;;;;;;8.6;72.8;98260;;;;
2022/04/21 20:46:44;;;;;;;35.1;40.3;;;;;;;8.5;74.1;98270;;;;
2022/04/21 20:56:44;;;;;;;39.6;46.3;;;;;;;8.4;74.3;98270;;;;
2022/04/21 21:07:16;;;;;;;39.6;46.3;;;;;;;8.5;73;98280;;;;
2022/04/21 21:17:44;;;;;;;39.6;46.3;;;;;;;8.5;72.7;98270;;;;
2022/04/21 21:27:44;;;;;;;28.9;34.2;;;;;;;8.5;72.7;98270;;;;
2022/04/21 21:37:44;;;;;;;28.9;34.2;;;;;;;8.5;72.5;98270;;;;
2022/04/21 21:47:44;;;;;;;28.9;34.2;;;;;;;8.5;72.2;98270;;;;
2022/04/21 21:58:44;;;;;;;29.2;36.9;;;;;;;8.4;72.4;98270;;;;
2022/04/21 22:09:44;;;;;;;29.2;36.9;;;;;;;8.4;73.1;98260;;;;
2022/04/21 22:20:44;;;;;;;29.2;36.9;;;;;;;8.3;73.2;98250;;;;
2022/04/21 22:31:44;;;;;;;39.4;49.4;;;;;;;8.3;73.5;98240;;;;
2022/04/21 22:41:44;;;;;;;39.4;49.4;;;;;;;8.3;73.6;98240;;;;
2022/04/21 22:51:44;;;;;;;39.4;49.4;;;;;;;8.3;73.2;98240;;;;
2022/04/21 23:01:44;;;;;;;37.3;45.9;;;;;;;8.3;73;98230;;;;
2022/04/21 23:22:44;;;;;;;37.3;45.9;;;;;;;8.1;74.4;98220;;;;
2022/04/21 23:32:44;;;;;;;37.9;47.2;;;;;;;8.1;74.4;98210;;;;
2022/04/21 23:43:44;;;;;;;37.9;47.2;;;;;;;8.1;74.2;98210;;;;
2022/04/21 23:54:44;;;;;;;38.9;48.2;;;;;;;8;75.2;98190;;;;
